Time;durP1;ratioP1;P1;durP2;ratioP2;P2;SDS_P1;SDS_P2;PMS_P1;PMS_P2;Temp;Humidity;BMP_temperature;BMP_pressure;BME280_temperature;BME280_humidity;BME280_pressure;Samples;Min_cycle;Max_cycle;Signal;HPM_P1;HPM_P2
2022/03/17 00:02:36;;;;;;;84.30;48.90;;;;;;;6.22;49.54;100339.85;233331;1217;139278;-62
2022/03/17 00:07:42;;;;;;;77.60;46.50;;;;;;;6.20;49.68;100343.78;233300;1217;139105;-60
2022/03/17 00:12:47;;;;;;;76.80;46.30;;;;;;;6.18;49.85;100348.23;233183;1220;139033;-62
2022/03/17 00:17:50;;;;;;;78.70;45.40;;;;;;;6.15;49.89;100356.38;233316;1217;140811;-60
2022/03/17 00:22:53;;;;;;;79.60;46.10;;;;;;;6.12;49.82;100355.92;233365;1217;138843;-59
2022/03/17 00:27:56;;;;;;;80.30;47.70;;;;;;;6.10;50.14;100358.44;233281;1217;139590;-59
2022/03/17 00:33:00;;;;;;;73.20;44.70;;;;;;;6.05;49.90;100354.14;233211;1217;140432;-60
2022/03/17 00:38:04;;;;;;;74.80;45.70;;;;;;;6.00;50.30;100358.84;233347;1217;139082;-61
2022/03/17 00:43:11;;;;;;;75.10;45.80;;;;;;;5.95;50.23;100366.00;233244;1219;139920;-61
2022/03/17 00:48:14;;;;;;;71.90;45.40;;;;;;;5.88;50.42;100368.58;233272;1219;141212;-60
2022/03/17 00:53:17;;;;;;;74.80;45.00;;;;;;;5.84;50.72;100370.96;233229;1219;139984;-61
2022/03/17 00:58:20;;;;;;;74.00;44.90;;;;;;;5.83;50.63;100369.38;233243;1218;139263;-60
2022/03/17 01:03:23;;;;;;;77.70;45.60;;;;;;;5.83;50.56;100375.90;233255;1219;139043;-60
2022/03/17 01:08:26;;;;;;;76.90;45.90;;;;;;;5.81;50.51;100382.45;233192;1218;139467;-60
2022/03/17 01:13:29;;;;;;;79.40;45.50;;;;;;;5.77;50.58;100385.20;233383;1217;138874;-60
2022/03/17 01:18:32;;;;;;;73.30;43.90;;;;;;;5.74;50.69;100385.27;233286;1217;139349;-61
2022/03/17 01:23:36;;;;;;;73.20;43.80;;;;;;;5.73;50.84;100392.14;233292;1220;139337;-62
2022/03/17 01:28:41;;;;;;;76.00;44.40;;;;;;;5.72;50.90;100391.63;233503;1217;139460;-62
2022/03/17 01:33:44;;;;;;;78.40;44.60;;;;;;;5.67;50.60;100389.09;233158;1219;140770;-62
2022/03/17 01:38:47;;;;;;;74.00;43.60;;;;;;;5.62;50.81;100398.69;233149;1220;142062;-62
2022/03/17 01:43:51;;;;;;;74.50;45.00;;;;;;;5.56;50.71;100404.11;233354;1219;138842;-60
2022/03/17 01:48:54;;;;;;;72.40;43.20;;;;;;;5.50;50.83;100405.11;233263;1219;141317;-60
2022/03/17 01:53:57;;;;;;;73.70;46.60;;;;;;;5.41;50.97;100404.90;233444;1217;140364;-60
2022/03/17 01:59:01;;;;;;;77.60;45.50;;;;;;;5.39;51.37;100403.38;233148;1217;139079;-61
2022/03/17 02:04:05;;;;;;;73.80;45.00;;;;;;;5.35;51.09;100398.69;233295;1219;141073;-61
2022/03/17 02:09:08;;;;;;;72.30;45.30;;;;;;;5.27;50.99;100399.20;233034;1217;139402;-61
2022/03/17 02:14:20;;;;;;;74.20;45.20;;;;;;;5.17;51.44;100402.89;233360;1217;139430;-58
2022/03/17 02:19:23;;;;;;;82.40;45.10;;;;;;;5.05;51.27;100407.16;233248;1218;138980;-61
2022/03/17 02:29:47;;;;;;;74.90;43.80;;;;;;;4.89;51.75;100417.10;233166;1219;139080;-60
2022/03/17 02:34:50;;;;;;;72.60;43.30;;;;;;;4.82;51.67;100422.32;233272;1219;138938;-62
2022/03/17 02:39:53;;;;;;;73.10;42.30;;;;;;;4.75;51.78;100426.46;233279;1217;139440;-62
2022/03/17 02:45:01;;;;;;;78.70;43.90;;;;;;;4.70;52.08;100425.84;233245;1217;138782;-62
2022/03/17 02:50:05;;;;;;;70.40;44.50;;;;;;;4.65;51.92;100422.93;233576;1217;139775;-62
2022/03/17 02:55:11;;;;;;;75.00;43.70;;;;;;;4.60;52.14;100439.71;233141;1218;139582;-61
2022/03/17 03:00:14;;;;;;;74.00;43.50;;;;;;;4.54;52.13;100454.90;233131;1219;139513;-63
2022/03/17 03:05:18;;;;;;;78.20;43.40;;;;;;;4.44;52.00;100458.38;233220;1217;139222;-62
2022/03/17 03:10:21;;;;;;;67.70;42.90;;;;;;;4.36;52.32;100466.40;233140;1217;138981;-60
2022/03/17 03:15:24;;;;;;;73.30;43.10;;;;;;;4.32;52.46;100476.66;233085;1217;139548;-62
2022/03/17 03:20:27;;;;;;;78.70;42.90;;;;;;;4.27;52.50;100486.92;233346;1219;139523;-61
2022/03/17 03:25:30;;;;;;;70.20;42.30;;;;;;;4.22;52.36;100489.42;233158;1219;139121;-59
2022/03/17 03:30:33;;;;;;;69.60;42.20;;;;;;;4.17;52.47;100487.92;233266;1219;139820;-58
2022/03/17 03:41:01;;;;;;;71.40;42.30;;;;;;;4.12;52.49;100490.44;233297;1218;140450;-62
2022/03/17 03:46:04;;;;;;;70.90;42.00;;;;;;;4.07;52.69;100484.02;233230;1218;139218;-62
2022/03/17 03:51:08;;;;;;;67.80;41.10;;;;;;;4.01;52.57;100479.16;233240;1217;139103;-61
2022/03/17 03:56:11;;;;;;;67.70;40.40;;;;;;;3.93;52.73;100482.07;233373;1217;139165;-62
2022/03/17 04:01:14;;;;;;;67.80;40.10;;;;;;;3.85;52.77;100488.48;233179;1219;138914;-62
2022/03/17 04:06:17;;;;;;;64.30;39.00;;;;;;;3.76;52.83;100494.36;233190;1219;139612;-62
2022/03/17 04:11:20;;;;;;;64.60;39.50;;;;;;;3.66;53.02;100502.72;233322;1217;138869;-62
2022/03/17 04:16:23;;;;;;;62.90;39.20;;;;;;;3.61;53.14;100507.16;233459;1217;139852;-63
2022/03/17 04:21:26;;;;;;;69.40;39.50;;;;;;;3.54;53.14;100514.60;233384;1217;139732;-63
2022/03/17 04:26:29;;;;;;;91.00;62.10;;;;;;;3.49;53.30;100519.03;233343;1219;139222;-62
2022/03/17 04:31:34;;;;;;;82.30;51.50;;;;;;;3.48;53.67;100521.33;233168;1217;139657;-62
2022/03/17 04:36:37;;;;;;;69.80;41.60;;;;;;;3.56;53.85;100531.95;233109;1217;138970;-62
2022/03/17 04:41:41;;;;;;;67.40;39.90;;;;;;;3.58;53.78;100535.97;233266;1217;138942;-64
2022/03/17 04:46:46;;;;;;;69.00;39.60;;;;;;;3.57;53.71;100540.72;233241;1218;139219;-63
2022/03/17 04:51:50;;;;;;;565.50;380.70;;;;;;;3.57;53.65;100543.88;233226;1217;141687;-62
2022/03/17 04:56:53;;;;;;;97.10;57.70;;;;;;;3.62;53.90;100547.68;233149;1218;139191;-64
2022/03/17 05:01:56;;;;;;;72.30;43.60;;;;;;;3.60;53.60;100556.32;233330;1219;139076;-64
2022/03/17 05:06:59;;;;;;;79.40;46.50;;;;;;;3.62;53.97;100554.17;233175;1218;138940;-65
2022/03/17 05:12:03;;;;;;;68.30;39.90;;;;;;;3.63;53.81;100560.67;233471;1217;140195;-64
2022/03/17 05:17:06;;;;;;;65.60;38.90;;;;;;;3.57;53.72;100562.48;233277;1217;138774;-63
2022/03/17 05:22:09;;;;;;;60.30;36.40;;;;;;;3.51;53.86;100564.63;233308;1216;139674;-64
2022/03/17 05:27:12;;;;;;;64.00;37.60;;;;;;;3.47;53.99;100566.42;233278;1217;139525;-64
2022/03/17 05:32:15;;;;;;;65.50;38.30;;;;;;;3.44;54.06;100578.73;233376;1216;139984;-63
2022/03/17 05:37:18;;;;;;;62.60;38.20;;;;;;;3.41;54.01;100586.30;233390;1217;139063;-63
2022/03/17 05:42:21;;;;;;;64.40;39.20;;;;;;;3.39;54.24;100587.89;233254;1218;141641;-63
2022/03/17 05:47:24;;;;;;;67.80;38.30;;;;;;;3.39;54.30;100592.80;233213;1219;139236;-63
2022/03/17 05:52:27;;;;;;;63.60;36.60;;;;;;;3.42;54.46;100596.64;233217;1219;140376;-64
2022/03/17 05:57:30;;;;;;;63.80;37.70;;;;;;;3.44;54.55;100598.91;232971;1219;139185;-64
2022/03/17 06:02:34;;;;;;;59.00;36.60;;;;;;;3.46;54.31;100601.16;233370;1219;138610;-62
2022/03/17 06:07:41;;;;;;;63.70;36.30;;;;;;;3.48;54.51;100605.71;233234;1219;140044;-63
2022/03/17 06:12:45;;;;;;;58.40;35.80;;;;;;;3.52;54.51;100604.63;233428;1217;139900;-64
2022/03/17 06:17:50;;;;;;;59.00;35.20;;;;;;;3.55;54.64;100600.92;233255;1217;139859;-64
2022/03/17 06:22:55;;;;;;;57.90;34.20;;;;;;;3.61;54.75;100594.04;233282;1217;139536;-62
2022/03/17 06:27:59;;;;;;;57.30;35.70;;;;;;;3.67;54.68;100595.91;233367;1217;139350;-63
2022/03/17 06:33:04;;;;;;;58.00;36.20;;;;;;;3.73;54.74;100595.14;233149;1217;139076;-63
2022/03/17 06:38:08;;;;;;;61.10;35.10;;;;;;;3.80;54.66;100594.73;233353;1217;139548;-65
2022/03/17 06:43:11;;;;;;;59.40;34.20;;;;;;;3.88;54.86;100597.98;233440;1217;139366;-64
2022/03/17 06:48:14;;;;;;;60.00;36.00;;;;;;;3.94;54.84;100592.67;233205;1217;139130;-63
2022/03/17 06:53:17;;;;;;;56.90;35.60;;;;;;;3.98;54.72;100595.44;233221;1217;140213;-63
2022/03/17 06:58:20;;;;;;;59.30;35.40;;;;;;;4.08;54.87;100599.20;233222;1219;139212;-62
2022/03/17 07:03:23;;;;;;;65.40;36.80;;;;;;;4.16;54.84;100601.75;233188;1217;139867;-63
2022/03/17 07:08:26;;;;;;;60.40;36.50;;;;;;;4.27;55.08;100607.94;233288;1218;139324;-63
2022/03/17 07:13:29;;;;;;;59.80;36.20;;;;;;;4.43;55.02;100614.80;233345;1217;139135;-65
2022/03/17 07:18:32;;;;;;;72.80;38.00;;;;;;;4.57;55.15;100623.23;233153;1219;140134;-64
2022/03/17 07:23:35;;;;;;;62.90;36.80;;;;;;;4.74;54.93;100624.44;233187;1219;140610;-64
2022/03/17 07:28:38;;;;;;;61.40;37.30;;;;;;;4.91;54.91;100625.27;233201;1219;139212;-63
2022/03/17 07:33:43;;;;;;;61.80;37.10;;;;;;;5.07;54.39;100623.13;233460;1217;139308;-63
2022/03/17 07:38:46;;;;;;;59.40;35.90;;;;;;;5.22;54.47;100632.77;233296;1217;138915;-63
2022/03/17 07:43:50;;;;;;;57.70;35.50;;;;;;;5.38;54.16;100634.80;233359;1217;139533;-63
2022/03/17 07:49:19;;;;;;;60.00;36.10;;;;;;;5.52;54.07;100638.30;233253;1217;139246;-63
2022/03/17 07:54:22;;;;;;;61.50;35.20;;;;;;;5.63;53.89;100644.11;233155;1217;139735;-63
2022/03/17 07:59:25;;;;;;;58.40;36.10;;;;;;;5.75;53.57;100648.66;233183;1218;139210;-63
2022/03/17 08:04:28;;;;;;;56.10;34.00;;;;;;;5.88;53.53;100648.45;233366;1218;139844;-64
2022/03/17 08:09:33;;;;;;;53.60;32.50;;;;;;;6.03;53.52;100652.99;233246;1217;140682;-63
2022/03/17 08:14:36;;;;;;;54.20;33.40;;;;;;;6.16;53.09;100659.62;233545;1217;140229;-63
2022/03/17 08:19:40;;;;;;;58.10;33.30;;;;;;;6.27;52.82;100659.07;233187;1218;139203;-63
2022/03/17 08:24:42;;;;;;;50.70;30.90;;;;;;;6.41;52.61;100668.67;233210;1219;138962;-64
2022/03/17 08:29:47;;;;;;;49.50;33.30;;;;;;;6.48;52.47;100681.59;233240;1219;139326;-63
2022/03/17 08:34:50;;;;;;;54.90;32.40;;;;;;;6.56;52.28;100683.05;233151;1217;139177;-63
2022/03/17 08:39:53;;;;;;;48.80;30.00;;;;;;;6.66;52.14;100679.66;233228;1219;139227;-63
2022/03/17 08:44:56;;;;;;;49.30;30.50;;;;;;;6.77;52.31;100679.28;233256;1217;139718;-59
2022/03/17 08:49:59;;;;;;;53.00;30.80;;;;;;;6.89;52.00;100681.34;233374;1217;139029;-61
2022/03/17 08:55:02;;;;;;;47.30;30.30;;;;;;;7.01;51.95;100682.84;233279;1217;139094;-61
2022/03/17 09:00:07;;;;;;;44.20;28.80;;;;;;;7.13;51.45;100688.23;233196;1219;139857;-63
2022/03/17 09:05:13;;;;;;;47.40;30.00;;;;;;;7.23;51.35;100682.91;233104;1218;139178;-62
2022/03/17 09:10:17;;;;;;;47.30;28.70;;;;;;;7.36;51.03;100675.72;233099;1217;138658;-62
2022/03/17 09:15:20;;;;;;;47.70;28.80;;;;;;;7.50;50.66;100678.58;233226;1217;139151;-62
2022/03/17 09:20:23;;;;;;;140.70;82.90;;;;;;;7.68;50.97;100684.70;233275;1218;139505;-61
2022/03/17 09:25:26;;;;;;;58.80;34.90;;;;;;;8.78;53.84;100683.77;233111;1219;139296;-60
2022/03/17 09:30:30;;;;;;;44.10;27.40;;;;;;;10.22;52.16;100684.14;233142;1219;139625;-60
2022/03/17 09:35:36;;;;;;;35.60;23.10;;;;;;;10.32;49.17;100686.64;232968;1218;139767;-59
2022/03/17 09:40:39;;;;;;;178.40;110.50;;;;;;;9.98;47.66;100686.35;233203;1217;139490;-60
2022/03/17 09:45:43;;;;;;;38.30;25.60;;;;;;;9.76;47.40;100692.74;233135;1218;142222;-62
2022/03/17 09:50:47;;;;;;;40.40;23.90;;;;;;;9.69;47.06;100686.58;233130;1217;140776;-62
2022/03/17 09:55:51;;;;;;;34.40;22.30;;;;;;;9.64;46.61;100678.05;233291;1218;140244;-62
2022/03/17 10:00:54;;;;;;;28.90;18.00;;;;;;;9.58;46.28;100671.52;233291;1217;139774;-62
2022/03/17 10:05:57;;;;;;;32.90;16.70;;;;;;;9.61;45.69;100677.98;233308;1217;140107;-61
2022/03/17 10:11:00;;;;;;;37.90;21.60;;;;;;;9.68;45.61;100669.24;233114;1218;139717;-63
2022/03/17 10:16:07;;;;;;;30.70;15.50;;;;;;;9.78;45.29;100671.94;233016;1217;140197;-60
2022/03/17 10:21:24;;;;;;;24.80;13.40;;;;;;;9.78;44.47;100670.00;233212;1219;139722;-61
2022/03/17 10:26:46;;;;;;;21.60;13.20;;;;;;;9.78;43.93;100667.86;233325;1218;138961;-60
2022/03/17 10:32:01;;;;;;;24.60;13.60;;;;;;;9.87;43.90;100657.81;233011;1217;139163;-60
2022/03/17 10:37:09;;;;;;;24.00;13.30;;;;;;;10.05;43.69;100657.39;233122;1219;139474;-59
2022/03/17 10:42:18;;;;;;;23.00;12.10;;;;;;;10.29;43.34;100646.66;233178;1219;140079;-59
2022/03/17 10:47:31;;;;;;;19.00;12.50;;;;;;;10.60;43.37;100643.25;233227;1217;141837;-59
2022/03/17 10:52:53;;;;;;;21.00;10.60;;;;;;;10.77;42.62;100630.55;233147;1219;142056;-60
2022/03/17 10:58:11;;;;;;;20.10;12.10;;;;;;;10.95;42.24;100627.92;233099;1219;139727;-61
2022/03/17 11:03:15;;;;;;;14.40;10.50;;;;;;;11.09;41.74;100627.89;233283;1217;139759;-60
2022/03/17 11:08:20;;;;;;;19.30;11.80;;;;;;;11.09;41.05;100629.14;233293;1217;141348;-59
2022/03/17 11:13:23;;;;;;;18.20;11.70;;;;;;;11.10;40.79;100623.44;233410;1216;140381;-60
2022/03/17 11:18:33;;;;;;;15.40;10.50;;;;;;;11.16;40.83;100631.93;233783;1217;139494;-60
2022/03/17 11:23:55;;;;;;;14.10;10.00;;;;;;;11.25;40.45;100637.62;233729;1218;139609;-60
2022/03/17 11:29:04;;;;;;;17.30;10.90;;;;;;;11.32;40.14;100639.09;233752;1219;139498;-59
2022/03/17 11:34:08;;;;;;;18.70;11.60;;;;;;;11.39;40.07;100646.12;233244;1217;140014;-59
2022/03/17 11:39:18;;;;;;;115.00;64.50;;;;;;;11.49;40.02;100643.76;233058;1218;140347;-60
2022/03/17 11:44:32;;;;;;;20.80;12.20;;;;;;;11.65;40.13;100639.92;233179;1218;139636;-61
2022/03/17 11:49:44;;;;;;;18.80;11.30;;;;;;;11.71;39.23;100641.10;233160;1218;139730;-61
2022/03/17 11:54:47;;;;;;;18.30;10.70;;;;;;;11.81;39.03;100631.09;233150;1217;140827;-61
2022/03/17 11:59:52;;;;;;;17.20;11.70;;;;;;;11.99;39.08;100625.55;233147;1219;140678;-61
2022/03/17 12:04:55;;;;;;;18.50;11.70;;;;;;;12.17;38.66;100613.02;233141;1218;140020;-60
2022/03/17 12:09:58;;;;;;;17.60;10.60;;;;;;;12.38;38.70;100606.27;233041;1218;140325;-61
2022/03/17 12:15:01;;;;;;;17.90;10.60;;;;;;;12.67;38.45;100599.09;233016;1218;139764;-61
2022/03/17 12:20:06;;;;;;;16.90;10.60;;;;;;;12.85;38.08;100601.61;233174;1217;139218;-60
2022/03/17 12:25:15;;;;;;;;;;;;;;;13.00;37.39;100606.27;233534;1217;140016;-61
2022/03/17 12:30:19;;;;;;;21.20;9.70;;;;;;;13.19;37.29;100604.84;233522;1218;125466;-60
2022/03/17 12:35:28;;;;;;;14.20;9.30;;;;;;;13.34;36.77;100599.50;233457;1218;139450;-59
2022/03/17 12:40:42;;;;;;;21.50;11.00;;;;;;;13.41;36.33;100595.45;233701;1219;139531;-59
2022/03/17 12:45:48;;;;;;;18.90;10.20;;;;;;;13.46;36.47;100591.83;233532;1219;139888;-60
2022/03/17 12:50:51;;;;;;;15.70;10.10;;;;;;;13.55;36.31;100590.10;233887;1219;139769;-60
2022/03/17 12:55:54;;;;;;;18.20;11.10;;;;;;;13.70;36.46;100591.52;233612;1219;141058;-60
2022/03/17 13:00:57;;;;;;;14.60;9.00;;;;;;;13.85;36.19;100589.50;233475;1217;139698;-60
2022/03/17 13:16:43;;;;;;;15.30;9.80;;;;;;;14.16;35.15;100584.52;233730;1218;139590;-59
2022/03/17 13:21:49;;;;;;;15.10;7.80;;;;;;;14.33;35.17;100583.64;233765;1217;139169;-60
2022/03/17 13:26:59;;;;;;;16.80;8.70;;;;;;;14.45;34.67;100579.80;233838;1218;139130;-60
2022/03/17 13:32:18;;;;;;;9.90;7.30;;;;;;;14.72;34.37;100591.59;233647;1218;139009;-60
2022/03/17 13:37:31;;;;;;;11.80;6.90;;;;;;;14.85;33.44;100587.98;233650;1219;138656;-59
2022/03/17 13:42:34;;;;;;;16.10;7.90;;;;;;;14.87;33.21;100586.45;233677;1219;139320;-61
2022/03/17 13:47:37;;;;;;;14.20;7.50;;;;;;;14.70;33.18;100587.02;233692;1218;140775;-59
2022/03/17 13:52:41;;;;;;;142.00;69.90;;;;;;;14.48;32.96;100585.17;233713;1219;139702;-61
2022/03/17 13:57:45;;;;;;;23.10;11.40;;;;;;;14.13;32.74;100583.23;233486;1217;139872;-61
2022/03/17 14:03:11;;;;;;;17.80;8.10;;;;;;;13.75;32.71;100588.54;233852;1217;139488;-61
2022/03/17 14:08:14;;;;;;;15.00;7.40;;;;;;;13.35;33.11;100589.28;233740;1218;139538;-60
2022/03/17 14:13:20;;;;;;;14.70;7.40;;;;;;;13.04;33.11;100594.48;233638;1219;139978;-60
2022/03/17 14:18:23;;;;;;;16.40;7.90;;;;;;;12.76;32.76;100592.23;233619;1218;140555;-61
2022/03/17 14:28:49;;;;;;;14.30;7.10;;;;;;;12.22;32.77;100591.30;233712;1218;139457;-60
2022/03/17 14:33:53;;;;;;;22.60;7.80;;;;;;;12.05;32.94;100598.24;233701;1219;141222;-61
2022/03/17 14:38:57;;;;;;;11.70;7.00;;;;;;;11.93;33.02;100597.19;233840;1218;140445;-61
2022/03/17 14:44:00;;;;;;;13.60;7.10;;;;;;;11.76;32.98;100601.95;233649;1218;139656;-60
2022/03/17 14:49:08;;;;;;;14.50;6.90;;;;;;;11.61;32.96;100606.48;233665;1217;139819;-60
2022/03/17 14:54:11;;;;;;;181.60;126.50;;;;;;;11.44;33.11;100611.80;233337;1217;139788;-61
2022/03/17 14:59:14;;;;;;;20.30;11.70;;;;;;;11.33;33.41;100614.34;232838;1217;141416;-61
2022/03/17 15:04:17;;;;;;;18.70;8.70;;;;;;;11.25;33.43;100613.63;233201;1217;140496;-61
2022/03/17 15:09:20;;;;;;;15.10;8.50;;;;;;;11.11;33.16;100617.52;233152;1217;140087;-59
2022/03/17 15:14:23;;;;;;;18.90;8.40;;;;;;;11.02;33.37;100620.03;233145;1217;138677;-60
2022/03/17 15:19:26;;;;;;;19.90;8.40;;;;;;;10.97;34.06;100625.00;233046;1218;140331;-60
2022/03/17 15:24:29;;;;;;;219.30;136.50;;;;;;;11.01;34.38;100619.90;233109;1218;139956;-60
2022/03/17 15:34:54;;;;;;;19.90;9.20;;;;;;;10.78;34.10;100619.52;233063;1217;141501;-60
2022/03/17 15:39:57;;;;;;;14.90;9.10;;;;;;;10.57;34.15;100618.14;233111;1218;140373;-60
2022/03/17 15:45:01;;;;;;;19.30;9.10;;;;;;;10.44;34.18;100623.95;233421;1217;141979;-60
2022/03/17 15:50:06;;;;;;;18.10;9.40;;;;;;;10.33;34.51;100627.55;233068;1218;142091;-61
2022/03/17 15:55:14;;;;;;;16.00;9.20;;;;;;;10.16;34.44;100638.39;233200;1217;140245;-59
2022/03/17 16:00:18;;;;;;;21.30;9.30;;;;;;;10.04;34.52;100641.80;233094;1217;139456;-60
2022/03/17 16:05:20;;;;;;;13.40;9.20;;;;;;;9.95;34.57;100642.13;233155;1217;140891;-60
2022/03/17 16:15:46;;;;;;;19.40;9.90;;;;;;;9.77;34.75;100664.52;233028;1218;139222;-60
2022/03/17 16:20:49;;;;;;;273.30;188.00;;;;;;;9.70;34.97;100669.01;233164;1219;139283;-60
2022/03/17 16:25:53;;;;;;;22.80;12.80;;;;;;;9.66;35.12;100673.38;233074;1219;140285;-60
2022/03/17 16:30:56;;;;;;;17.20;10.00;;;;;;;9.63;35.03;100677.20;233048;1219;140449;-59
2022/03/17 16:36:00;;;;;;;16.80;9.80;;;;;;;9.51;34.79;100674.93;233092;1217;140986;-60
2022/03/17 16:41:05;;;;;;;19.90;9.00;;;;;;;9.40;34.96;100677.75;233099;1217;141498;-60
2022/03/17 16:46:11;;;;;;;18.70;9.40;;;;;;;9.29;34.93;100688.00;233022;1218;140158;-60
2022/03/17 16:51:14;;;;;;;17.50;9.40;;;;;;;9.16;34.79;100698.29;233136;1217;140223;-59
2022/03/17 16:56:19;;;;;;;101.90;63.90;;;;;;;9.05;34.66;100701.66;233138;1217;139190;-59
2022/03/17 17:01:22;;;;;;;22.40;12.10;;;;;;;8.98;34.90;100696.89;233123;1217;140102;-59
2022/03/17 17:06:26;;;;;;;20.40;10.60;;;;;;;8.85;34.86;100698.67;233094;1217;139782;-59
2022/03/17 17:11:29;;;;;;;20.80;11.50;;;;;;;8.72;34.66;100716.38;233067;1217;140490;-59
2022/03/17 17:16:33;;;;;;;21.60;11.10;;;;;;;8.62;34.70;100714.88;233091;1217;139521;-59
2022/03/17 17:21:37;;;;;;;20.00;11.10;;;;;;;8.53;34.73;100714.59;233044;1217;138993;-59
2022/03/17 17:32:03;;;;;;;20.30;9.80;;;;;;;8.34;34.78;100732.75;233141;1217;139323;-58
2022/03/17 17:37:06;;;;;;;15.80;9.80;;;;;;;8.25;34.88;100742.52;233075;1217;140149;-59
2022/03/17 17:42:11;;;;;;;19.90;10.10;;;;;;;8.19;34.86;100745.67;233078;1217;139467;-64
2022/03/17 17:47:14;;;;;;;20.60;11.50;;;;;;;8.13;34.80;100750.40;233114;1219;139621;-62
2022/03/17 17:52:17;;;;;;;24.70;13.00;;;;;;;8.08;34.73;100752.29;233022;1217;139875;-62
2022/03/17 17:57:20;;;;;;;355.90;236.30;;;;;;;8.04;34.99;100763.00;233114;1217;139561;-61
2022/03/17 18:02:23;;;;;;;37.60;18.40;;;;;;;8.14;35.27;100754.45;233165;1217;139466;-62
2022/03/17 18:07:26;;;;;;;28.10;13.20;;;;;;;8.15;34.76;100753.55;233074;1217;139580;-63
2022/03/17 18:12:29;;;;;;;21.60;11.70;;;;;;;8.06;34.84;100758.55;233051;1217;139349;-63
2022/03/17 18:17:33;;;;;;;20.60;11.20;;;;;;;7.96;34.73;100766.90;232946;1217;139666;-63
2022/03/17 18:22:36;;;;;;;19.90;11.00;;;;;;;7.86;34.69;100777.21;233034;1217;139098;-62
2022/03/17 18:27:39;;;;;;;21.80;12.00;;;;;;;7.77;34.65;100783.95;233120;1217;139822;-62
2022/03/17 18:32:43;;;;;;;27.50;12.70;;;;;;;7.72;34.38;100785.48;233175;1219;140426;-63
2022/03/17 18:37:46;;;;;;;24.70;12.20;;;;;;;7.64;34.51;100786.70;232944;1217;140445;-62
2022/03/17 18:42:49;;;;;;;23.30;12.30;;;;;;;7.58;34.49;100789.49;233099;1219;140090;-64
2022/03/17 18:47:53;;;;;;;69.00;35.60;;;;;;;7.55;34.40;100791.85;232999;1219;139422;-62
2022/03/17 18:52:56;;;;;;;30.80;16.90;;;;;;;7.67;35.59;100795.64;233030;1219;139809;-62
2022/03/17 18:58:00;;;;;;;28.40;14.30;;;;;;;7.74;35.01;100802.56;232334;1217;140768;-62
2022/03/17 19:03:07;;;;;;;26.90;13.10;;;;;;;7.62;34.16;100810.06;233274;1217;139576;-63
2022/03/17 19:08:10;;;;;;;25.20;13.00;;;;;;;7.46;34.25;100814.31;233245;1217;140593;-63
2022/03/17 19:13:14;;;;;;;25.20;11.90;;;;;;;7.33;33.88;100823.21;233110;1219;140362;-62
2022/03/17 19:18:17;;;;;;;21.40;12.00;;;;;;;7.23;34.22;100831.88;233145;1217;138983;-62
2022/03/17 19:23:20;;;;;;;28.50;11.90;;;;;;;7.17;34.29;100839.77;233015;1217;139833;-61
2022/03/17 19:28:23;;;;;;;21.40;10.80;;;;;;;7.14;34.16;100851.14;233138;1217;139854;-62
2022/03/17 19:33:31;;;;;;;22.30;10.00;;;;;;;7.13;34.27;100851.48;233108;1218;139720;-63
2022/03/17 19:38:34;;;;;;;21.90;10.70;;;;;;;7.05;34.01;100856.23;233235;1217;141093;-65
2022/03/17 19:43:37;;;;;;;21.80;10.60;;;;;;;6.99;34.17;100862.34;233140;1218;139679;-62
2022/03/17 19:48:41;;;;;;;27.40;10.90;;;;;;;6.91;34.03;100865.65;233038;1219;140063;-65
2022/03/17 19:53:44;;;;;;;22.80;11.80;;;;;;;6.85;34.14;100862.23;233024;1217;139914;-64
2022/03/17 19:58:48;;;;;;;23.40;12.00;;;;;;;6.80;34.05;100855.44;233103;1217;139212;-64
2022/03/17 20:03:52;;;;;;;24.70;12.50;;;;;;;6.74;34.25;100851.48;233008;1218;139390;-63
2022/03/17 20:08:57;;;;;;;24.80;12.50;;;;;;;6.67;33.76;100853.89;233268;1217;138540;-63
2022/03/17 20:14:00;;;;;;;30.00;13.00;;;;;;;6.63;34.10;100858.72;233165;1217;139021;-63
2022/03/17 20:19:03;;;;;;;25.70;12.60;;;;;;;6.62;34.14;100860.49;233175;1217;139382;-63
2022/03/17 20:24:06;;;;;;;27.30;13.80;;;;;;;6.59;34.16;100870.80;233098;1217;141553;-63
2022/03/17 20:29:09;;;;;;;24.50;12.90;;;;;;;6.57;34.25;100870.81;233176;1218;139769;-65
2022/03/17 20:34:32;;;;;;;23.80;12.70;;;;;;;6.49;33.77;100865.83;232991;1217;139499;-64
2022/03/17 20:39:36;;;;;;;52.10;26.60;;;;;;;6.51;35.05;100866.50;233088;1219;139635;-63
2022/03/17 20:44:39;;;;;;;31.90;14.40;;;;;;;6.64;34.46;100874.58;233120;1219;141530;-61
2022/03/17 20:49:42;;;;;;;29.60;15.30;;;;;;;6.53;34.11;100883.58;233078;1217;139323;-61
2022/03/17 20:54:45;;;;;;;25.90;13.80;;;;;;;6.44;34.29;100887.94;233102;1217;139951;-61
2022/03/17 20:59:48;;;;;;;27.70;13.90;;;;;;;6.36;34.27;100900.05;233091;1217;138640;-61
2022/03/17 21:04:52;;;;;;;30.70;15.00;;;;;;;6.27;34.24;100897.20;233115;1219;139824;-61
2022/03/17 21:09:55;;;;;;;33.80;16.10;;;;;;;6.19;34.26;100900.83;233238;1217;139694;-61
2022/03/17 21:14:58;;;;;;;32.30;16.50;;;;;;;6.15;34.37;100906.52;233297;1217;139256;-61
2022/03/17 21:20:07;;;;;;;33.90;15.30;;;;;;;6.08;34.06;100908.55;233095;1216;139477;-62
2022/03/17 21:25:12;;;;;;;34.60;15.40;;;;;;;6.04;34.17;100908.10;233260;1217;139374;-63
2022/03/17 21:30:15;;;;;;;29.70;15.60;;;;;;;5.99;34.19;100913.08;233151;1217;139630;-62
2022/03/17 21:35:18;;;;;;;37.10;16.90;;;;;;;5.93;34.31;100913.85;233164;1217;139304;-62
2022/03/17 21:40:21;;;;;;;31.60;15.50;;;;;;;5.88;34.13;100917.59;233037;1216;139578;-62
2022/03/17 21:45:24;;;;;;;31.10;16.10;;;;;;;5.83;34.24;100923.12;233187;1217;139045;-62
2022/03/17 21:50:27;;;;;;;32.60;14.40;;;;;;;5.77;34.26;100927.77;233301;1217;139184;-62
2022/03/17 21:55:30;;;;;;;27.00;14.40;;;;;;;5.68;34.19;100929.98;233146;1217;139290;-63
2022/03/17 22:00:33;;;;;;;28.70;13.80;;;;;;;5.61;34.60;100935.86;233174;1217;139432;-62
2022/03/17 22:05:38;;;;;;;28.90;14.40;;;;;;;5.59;34.28;100944.00;233238;1217;139283;-60
2022/03/17 22:10:41;;;;;;;26.20;14.10;;;;;;;5.53;34.51;100951.81;233198;1217;139305;-62
2022/03/17 22:15:44;;;;;;;22.30;12.20;;;;;;;5.49;34.47;100960.83;233279;1217;139322;-62
2022/03/17 22:20:48;;;;;;;28.30;13.70;;;;;;;5.43;34.31;100964.05;233330;1219;139206;-60
2022/03/17 22:25:52;;;;;;;25.60;12.50;;;;;;;5.41;34.56;100968.13;233130;1219;139773;-63
2022/03/17 22:30:55;;;;;;;23.40;12.90;;;;;;;5.36;34.39;100972.23;233120;1218;139571;-65
2022/03/17 22:35:59;;;;;;;23.80;12.60;;;;;;;5.33;34.37;100975.95;233135;1217;139513;-64
2022/03/17 22:46:23;;;;;;;25.90;12.50;;;;;;;5.28;34.73;100980.92;233298;1217;138863;-63
2022/03/17 22:51:29;;;;;;;26.70;13.50;;;;;;;5.21;34.69;100984.85;233192;1217;139213;-61
2022/03/17 22:56:33;;;;;;;27.40;13.80;;;;;;;5.17;34.90;100984.17;233261;1217;138898;-62
2022/03/17 23:01:36;;;;;;;28.10;13.70;;;;;;;5.11;35.06;100982.13;233075;1218;140521;-62
2022/03/17 23:06:39;;;;;;;23.30;12.90;;;;;;;5.08;35.07;100985.66;233112;1219;139926;-61
2022/03/17 23:11:42;;;;;;;26.80;13.40;;;;;;;5.05;34.94;100983.77;233162;1217;139828;-62
2022/03/17 23:16:47;;;;;;;25.70;13.20;;;;;;;4.98;35.12;100981.70;233343;1217;140426;-62
2022/03/17 23:21:51;;;;;;;30.10;13.70;;;;;;;4.96;35.30;100978.91;233227;1217;139782;-63
2022/03/17 23:26:55;;;;;;;31.40;14.00;;;;;;;4.90;35.12;100984.93;233259;1217;140792;-60
2022/03/17 23:31:58;;;;;;;25.70;13.30;;;;;;;4.84;35.13;100991.30;233335;1217;139552;-60
2022/03/17 23:37:02;;;;;;;27.60;13.20;;;;;;;4.77;35.37;100992.76;233219;1217;140149;-59